Terminal Aerodrome Forecast
Issued by NWS Charleston, WV

Current Version | Previous Version | Text Only | Print | Product List | Glossary Off
Versions: 1 2 3 4 5 6 7 8 9 10 11 12 13 14 15 16 17 18 19 20 21 22 23

460
FTUS41 KRLX 251016 AAA
TAFHTS
TAF AMD
KHTS 251016Z 2510/2606 30006KT P6SM SCT035
      TEMPO 2511/2513 5SM BR SCT001
     FM251400 VRB03KT P6SM SCT025=

USA.gov is the U.S. government's official web portal to all federal, state and local government web resources and services.